createdAt,value
2017-08-22T00:00:37.965Z,86.47
2017-08-22T00:03:06.299Z,86.10
2017-08-22T00:05:34.657Z,86.02
2017-08-22T00:08:02.990Z,86.90
2017-08-22T00:10:31.353Z,87.04
2017-08-22T00:12:59.715Z,86.44
2017-08-22T00:15:28.053Z,85.84
2017-08-22T00:17:56.366Z,85.99
2017-08-22T00:20:24.720Z,87.11
2017-08-22T00:22:53.094Z,87.43
2017-08-22T00:25:21.418Z,86.80
2017-08-22T00:27:50.741Z,86.18
2017-08-22T00:30:19.089Z,85.71
2017-08-22T00:32:47.446Z,85.50
2017-08-22T00:35:15.789Z,85.97
2017-08-22T00:37:44.528Z,85.79
2017-08-22T00:40:12.846Z,86.84
2017-08-22T00:42:41.152Z,86.72
2017-08-22T00:45:09.646Z,86.07
2017-08-22T00:47:37.995Z,86.34
2017-08-22T00:50:06.344Z,87.04
2017-08-22T00:52:34.707Z,87.08
2017-08-22T00:55:04.121Z,86.90
2017-08-22T00:57:32.459Z,86.71
2017-08-22T01:00:00.787Z,87.01
2017-08-22T01:02:29.129Z,86.94
2017-08-22T01:04:57.539Z,86.19
2017-08-22T01:07:26.689Z,86.13
2017-08-22T01:09:55.041Z,86.61
2017-08-22T01:12:23.694Z,87.08
2017-08-22T01:14:52.037Z,87.13
2017-08-22T01:17:20.387Z,86.89
2017-08-22T01:19:48.738Z,87.39
2017-08-22T01:22:17.065Z,87.59
2017-08-22T01:24:45.398Z,87.70
2017-08-22T01:27:13.738Z,87.09
2017-08-22T01:29:42.093Z,87.00
2017-08-22T01:32:10.629Z,86.93
2017-08-22T01:34:38.983Z,86.47
2017-08-22T01:37:07.335Z,86.86
2017-08-22T01:39:35.808Z,86.90
2017-08-22T01:42:04.177Z,86.95
2017-08-22T01:44:32.526Z,86.92
2017-08-22T01:47:01.216Z,87.46
2017-08-22T01:49:29.578Z,87.11
2017-08-22T01:52:03.805Z,86.79
2017-08-22T01:54:32.122Z,87.20
2017-08-22T01:57:01.005Z,87.21
2017-08-22T01:59:29.353Z,87.57
2017-08-22T02:01:57.769Z,87.58
2017-08-22T02:04:26.243Z,87.80
2017-08-22T02:06:54.579Z,87.38
2017-08-22T02:09:22.931Z,87.89
2017-08-22T02:11:51.254Z,87.04
2017-08-22T02:14:19.617Z,86.39
2017-08-22T02:16:47.963Z,86.70
2017-08-22T02:19:16.300Z,85.86
2017-08-22T02:21:44.913Z,86.78
2017-08-22T02:24:13.237Z,86.87
2017-08-22T02:26:42.057Z,86.66
2017-08-22T02:29:10.424Z,86.99
2017-08-22T02:31:38.760Z,86.97
2017-08-22T02:34:07.387Z,86.89
2017-08-22T02:36:35.724Z,87.04
2017-08-22T02:39:04.062Z,86.26
2017-08-22T02:41:32.402Z,87.06
2017-08-22T02:44:00.758Z,87.57
2017-08-22T02:46:29.104Z,87.35
2017-08-22T02:48:57.503Z,87.70
2017-08-22T02:51:25.843Z,88.05
2017-08-22T02:53:54.190Z,87.34
2017-08-22T02:56:22.632Z,87.21
2017-08-22T02:58:50.981Z,87.58
2017-08-22T03:01:19.322Z,87.48
2017-08-22T03:03:47.677Z,86.93
2017-08-22T03:06:16.007Z,86.34
2017-08-22T03:08:44.343Z,86.23
2017-08-22T03:11:12.699Z,85.90
2017-08-22T03:13:41.017Z,86.40
2017-08-22T03:16:10.273Z,85.90
2017-08-22T03:18:38.651Z,86.55
2017-08-22T03:21:07.018Z,86.49
2017-08-22T03:23:35.331Z,86.04
2017-08-22T03:26:03.958Z,85.65
2017-08-22T03:28:32.272Z,85.57
2017-08-22T03:31:00.619Z,85.36
2017-08-22T03:33:28.977Z,85.13
2017-08-22T03:35:57.685Z,85.19
2017-08-22T03:38:26.055Z,85.27
2017-08-22T03:40:54.388Z,85.21
2017-08-22T03:43:22.736Z,85.49
2017-08-22T03:45:51.153Z,85.36
2017-08-22T03:48:19.546Z,85.28
2017-08-22T03:50:47.896Z,85.42
2017-08-22T03:53:16.253Z,85.39
2017-08-22T03:55:44.611Z,85.31
2017-08-22T03:58:12.964Z,85.41
2017-08-22T04:00:41.438Z,85.39
2017-08-22T04:03:09.759Z,85.47
2017-08-22T04:05:38.202Z,85.33
2017-08-22T04:08:06.571Z,85.54
2017-08-22T04:10:35.839Z,85.86
2017-08-22T04:13:04.182Z,85.86
2017-08-22T04:15:32.506Z,85.85
2017-08-22T04:18:00.862Z,85.64
2017-08-22T04:20:29.182Z,85.55
2017-08-22T04:22:57.527Z,85.58
2017-08-22T04:25:25.879Z,85.67
2017-08-22T04:27:54.214Z,85.65
2017-08-22T04:30:22.551Z,85.75
2017-08-22T04:32:50.863Z,85.70
2017-08-22T04:35:19.201Z,85.82
2017-08-22T04:37:47.519Z,85.76
2017-08-22T04:40:16.098Z,85.75
2017-08-22T04:42:44.444Z,85.79
2017-08-22T04:45:12.879Z,85.85
2017-08-22T04:47:41.229Z,85.82
2017-08-22T04:50:09.558Z,85.82
2017-08-22T04:52:37.896Z,86.02
2017-08-22T04:55:06.204Z,85.82
2017-08-22T04:57:34.552Z,85.94
2017-08-22T05:00:02.885Z,85.77
2017-08-22T05:02:31.249Z,85.94
2017-08-22T05:04:59.583Z,86.05
2017-08-22T05:07:27.916Z,85.97
2017-08-22T05:09:56.271Z,86.01
2017-08-22T05:12:24.588Z,86.08
2017-08-22T05:14:52.925Z,85.98
2017-08-22T05:17:21.269Z,85.81
2017-08-22T05:19:49.625Z,86.07
2017-08-22T05:22:17.971Z,86.30
2017-08-22T05:24:46.317Z,86.61
2017-08-22T05:27:14.784Z,86.31
2017-08-22T05:29:43.103Z,85.95
2017-08-22T05:32:11.435Z,85.75
2017-08-22T05:34:39.769Z,85.68
2017-08-22T05:37:08.551Z,85.57
2017-08-22T05:39:37.656Z,86.55
2017-08-22T05:42:05.986Z,86.89
2017-08-22T05:44:34.318Z,86.70
2017-08-22T05:47:02.640Z,86.39
2017-08-22T05:49:31.017Z,85.74
2017-08-22T05:51:59.490Z,85.74
2017-08-22T05:54:27.812Z,85.58
2017-08-22T05:56:56.234Z,85.95
2017-08-22T05:59:24.653Z,86.35
2017-08-22T06:01:53.005Z,86.23
2017-08-22T06:04:21.316Z,86.83
2017-08-22T06:06:50.140Z,86.43
2017-08-22T06:09:18.526Z,86.47
2017-08-22T06:11:46.875Z,86.51
2017-08-22T06:14:15.227Z,86.28
2017-08-22T06:16:43.544Z,86.23
2017-08-22T06:19:12.344Z,86.66
2017-08-22T06:21:40.680Z,86.23
2017-08-22T06:24:08.994Z,85.89
2017-08-22T06:26:37.333Z,85.68
2017-08-22T06:29:05.749Z,86.21
2017-08-22T06:31:34.098Z,86.20
2017-08-22T06:34:02.535Z,85.70
2017-08-22T06:36:30.959Z,85.52
2017-08-22T06:38:59.328Z,85.81
2017-08-22T06:41:28.115Z,85.68
2017-08-22T06:43:56.440Z,86.10
2017-08-22T06:46:24.798Z,86.05
2017-08-22T06:48:53.142Z,85.48
2017-08-22T06:51:21.508Z,85.18
2017-08-22T06:53:50.123Z,85.27
2017-08-22T06:56:18.457Z,85.10
2017-08-22T06:58:47.660Z,85.41
2017-08-22T07:01:17.933Z,85.24
2017-08-22T07:03:46.504Z,85.36
2017-08-22T07:06:14.899Z,85.35
2017-08-22T07:08:43.492Z,85.05
2017-08-22T07:11:11.963Z,85.26
2017-08-22T07:13:40.473Z,85.05
2017-08-22T07:16:09.069Z,84.82
2017-08-22T07:18:43.994Z,84.94
2017-08-22T07:21:12.403Z,84.54
2017-08-22T07:23:40.795Z,84.49
2017-08-22T07:26:09.210Z,84.44
2017-08-22T07:28:37.653Z,84.53
2017-08-22T07:31:05.994Z,84.10
2017-08-22T07:33:34.611Z,83.64
2017-08-22T07:36:03.076Z,83.36
2017-08-22T07:38:31.408Z,83.54
2017-08-22T07:40:59.891Z,83.68
2017-08-22T07:43:28.258Z,83.85
2017-08-22T07:45:56.594Z,83.92
2017-08-22T07:48:24.954Z,83.62
2017-08-22T07:50:53.776Z,83.64
2017-08-22T07:53:22.106Z,83.63
2017-08-22T07:55:50.541Z,83.53
2017-08-22T07:58:18.905Z,83.21
2017-08-22T08:00:47.256Z,83.20
2017-08-22T08:03:15.618Z,83.43
2017-08-22T08:05:43.946Z,83.22
2017-08-22T08:08:12.305Z,83.09
2017-08-22T08:10:40.790Z,83.07
2017-08-22T08:13:09.452Z,83.07
2017-08-22T08:15:37.813Z,83.24
2017-08-22T08:18:06.161Z,82.90
2017-08-22T08:20:34.605Z,82.67
2017-08-22T08:23:02.940Z,82.39
2017-08-22T08:25:31.284Z,82.27
2017-08-22T08:27:59.628Z,81.79
2017-08-22T08:30:27.990Z,81.65
2017-08-22T08:32:56.314Z,81.29
2017-08-22T08:35:24.690Z,80.97
2017-08-22T08:37:53.041Z,80.94
2017-08-22T08:40:21.745Z,80.81
2017-08-22T08:42:50.086Z,80.53
2017-08-22T08:45:18.413Z,80.03
2017-08-22T08:47:46.798Z,79.65
2017-08-22T08:50:15.173Z,79.53
2017-08-22T08:52:43.549Z,79.31
2017-08-22T08:55:11.885Z,77.15
2017-08-22T08:57:40.670Z,75.65
2017-08-22T09:00:09.012Z,74.46
2017-08-22T09:02:41.123Z,73.94
2017-08-22T09:05:09.473Z,73.37
2017-08-22T09:07:37.800Z,71.84
2017-08-22T09:10:06.145Z,69.66
2017-08-22T09:12:34.478Z,70.24
2017-08-22T09:15:02.861Z,70.86
2017-08-22T09:17:31.195Z,71.50
2017-08-22T09:19:59.559Z,69.77
2017-08-22T09:22:27.892Z,69.42
2017-08-22T09:24:57.616Z,69.80
2017-08-22T09:27:25.953Z,67.51
2017-08-22T09:29:54.721Z,64.15
2017-08-22T09:32:23.839Z,66.43
2017-08-22T09:34:52.310Z,66.07
2017-08-22T09:37:20.671Z,65.63
2017-08-22T09:39:49.000Z,64.28
2017-08-22T09:42:17.371Z,61.80
2017-08-22T09:44:45.683Z,60.61
2017-08-22T09:47:14.396Z,60.56
2017-08-22T09:49:42.720Z,61.59
2017-08-22T09:52:11.950Z,62.66
2017-08-22T09:54:40.376Z,62.75
2017-08-22T09:57:08.775Z,62.60
2017-08-22T09:59:37.121Z,63.14
2017-08-22T10:02:05.483Z,63.63
2017-08-22T10:05:13.985Z,58.87
2017-08-22T10:07:42.334Z,58.93
2017-08-22T10:10:10.692Z,59.22
2017-08-22T10:12:39.047Z,57.22
2017-08-22T10:15:07.413Z,56.70
2017-08-22T10:17:35.763Z,59.10
2017-08-22T10:20:04.088Z,58.47
2017-08-22T10:22:32.435Z,58.33
2017-08-22T10:25:00.776Z,58.54
2017-08-22T10:27:29.133Z,58.20
2017-08-22T10:29:57.620Z,57.33
2017-08-22T10:32:26.046Z,57.13
2017-08-22T10:34:54.372Z,55.26
2017-08-22T10:37:23.225Z,55.30
2017-08-22T10:39:51.579Z,56.20
2017-08-22T10:42:19.913Z,58.05
2017-08-22T10:44:48.275Z,56.54
2017-08-22T10:47:16.593Z,55.71
2017-08-22T10:49:44.930Z,55.62
2017-08-22T10:52:13.285Z,58.26
2017-08-22T10:54:41.635Z,54.38
2017-08-22T10:57:09.984Z,55.70
2017-08-22T10:59:38.342Z,56.93
2017-08-22T11:02:06.671Z,56.87
2017-08-22T11:04:35.025Z,56.01
2017-08-22T11:07:03.383Z,57.00
2017-08-22T11:09:31.695Z,56.17
2017-08-22T11:12:00.028Z,56.87
2017-08-22T11:14:28.348Z,54.21
2017-08-22T11:16:56.697Z,55.18
2017-08-22T11:19:25.033Z,54.01
2017-08-22T11:21:53.399Z,53.56
2017-08-22T11:24:21.727Z,53.87
2017-08-22T11:26:50.065Z,54.19
2017-08-22T11:29:18.403Z,53.00
2017-08-22T11:31:47.033Z,54.24
2017-08-22T11:34:15.369Z,56.56
2017-08-22T11:36:43.683Z,54.55
2017-08-22T11:39:12.040Z,54.48
2017-08-22T11:41:40.378Z,54.19
2017-08-22T11:44:08.734Z,53.28
2017-08-22T11:46:37.071Z,52.86
2017-08-22T11:49:05.417Z,53.56
2017-08-22T11:51:33.763Z,52.59
2017-08-22T11:54:02.942Z,52.10
2017-08-22T11:56:31.266Z,52.58
2017-08-22T11:58:59.622Z,52.24
2017-08-22T12:01:27.975Z,54.14
2017-08-22T12:03:56.296Z,53.13
2017-08-22T12:06:24.650Z,53.93
2017-08-22T12:08:52.990Z,52.86
2017-08-22T12:11:21.334Z,52.20
2017-08-22T12:13:49.644Z,51.57
2017-08-22T12:16:17.974Z,52.58
2017-08-22T12:18:46.318Z,54.80
2017-08-22T12:21:14.695Z,54.80
2017-08-22T12:23:43.055Z,52.32
2017-08-22T12:26:11.389Z,52.34
2017-08-22T12:28:39.736Z,55.01
2017-08-22T12:31:08.081Z,53.28
2017-08-22T12:33:36.429Z,52.31
2017-08-22T12:36:04.797Z,54.29
2017-08-22T12:38:33.407Z,51.62
2017-08-22T12:41:01.750Z,52.78
2017-08-22T12:43:30.069Z,51.91
2017-08-22T12:45:58.422Z,53.47
2017-08-22T12:48:26.773Z,52.83
2017-08-22T12:50:55.121Z,51.59
2017-08-22T12:53:23.439Z,50.87
2017-08-22T12:55:51.782Z,50.06
2017-08-22T12:58:20.210Z,51.27
2017-08-22T13:00:48.680Z,51.54
2017-08-22T13:03:17.037Z,51.17
2017-08-22T13:05:45.369Z,50.83
2017-08-22T13:08:13.774Z,51.44
2017-08-22T13:10:42.113Z,51.02
2017-08-22T13:13:10.469Z,50.37
2017-08-22T13:15:38.806Z,51.55
2017-08-22T13:18:07.158Z,53.02
2017-08-22T13:20:35.491Z,49.42
2017-08-22T13:23:03.891Z,49.01
2017-08-22T13:25:32.227Z,51.13
2017-08-22T13:28:00.615Z,52.70
2017-08-22T13:30:28.980Z,53.08
2017-08-22T13:32:57.600Z,49.76
2017-08-22T13:35:25.938Z,49.74
2017-08-22T13:37:54.553Z,49.13
2017-08-22T13:40:22.943Z,49.08
2017-08-22T13:42:51.280Z,50.21
2017-08-22T13:45:19.618Z,49.47
2017-08-22T13:47:47.947Z,50.83
2017-08-22T13:50:16.294Z,49.73
2017-08-22T13:52:44.695Z,50.01
2017-08-22T13:55:13.025Z,48.69
2017-08-22T13:57:41.353Z,48.40
2017-08-22T14:00:09.956Z,47.99
2017-08-22T14:02:38.286Z,46.89
2017-08-22T14:05:06.631Z,47.08
2017-08-22T14:07:34.986Z,46.49
2017-08-22T14:10:03.301Z,48.79
2017-08-22T14:12:31.919Z,49.64
2017-08-22T14:15:00.270Z,48.61
2017-08-22T14:17:28.637Z,48.53
2017-08-22T14:19:57.011Z,45.91
2017-08-22T14:22:25.614Z,46.26
2017-08-22T14:24:53.941Z,46.36
2017-08-22T14:27:22.278Z,46.23
2017-08-22T14:29:50.626Z,45.74
2017-08-22T14:32:19.613Z,45.79
2017-08-22T14:34:47.962Z,45.75
2017-08-22T14:37:16.294Z,47.10
2017-08-22T14:39:45.026Z,47.21
2017-08-22T14:42:13.344Z,46.87
2017-08-22T14:44:41.690Z,44.59
2017-08-22T14:47:10.055Z,45.77
2017-08-22T14:49:38.410Z,45.39
2017-08-22T14:52:06.756Z,44.99
2017-08-22T14:54:36.111Z,41.67
2017-08-22T14:57:04.534Z,42.42
2017-08-22T14:59:32.893Z,41.32
2017-08-22T15:02:01.239Z,40.83
2017-08-22T15:04:29.568Z,39.62
2017-08-22T15:06:57.910Z,41.60
2017-08-22T15:09:26.250Z,43.67
2017-08-22T15:11:54.649Z,44.28
2017-08-22T15:14:22.977Z,44.09
2017-08-22T15:16:51.575Z,43.49
2017-08-22T15:19:19.913Z,42.69
2017-08-22T15:21:48.297Z,41.59
2017-08-22T15:24:16.655Z,39.07
2017-08-22T15:26:44.981Z,38.84
2017-08-22T15:29:13.336Z,38.24
2017-08-22T15:31:41.674Z,37.22
2017-08-22T15:34:10.026Z,40.02
2017-08-22T15:36:38.345Z,39.49
2017-08-22T15:39:06.942Z,39.58
2017-08-22T15:41:35.272Z,39.34
2017-08-22T15:44:08.332Z,38.94
2017-08-22T15:46:36.902Z,37.49
2017-08-22T15:49:05.253Z,38.80
2017-08-22T15:51:33.630Z,38.85
2017-08-22T15:54:01.964Z,38.96
2017-08-22T15:56:31.134Z,38.02
2017-08-22T15:58:59.489Z,38.43
2017-08-22T16:01:27.839Z,39.78
2017-08-22T16:03:56.284Z,39.13
2017-08-22T16:06:24.649Z,41.45
2017-08-22T16:08:52.993Z,39.60
2017-08-22T16:11:21.337Z,40.93
2017-08-22T16:13:49.676Z,40.94
2017-08-22T16:16:18.523Z,41.68
2017-08-22T16:18:46.863Z,41.99
2017-08-22T16:21:15.204Z,42.84
2017-08-22T16:23:43.651Z,44.96
2017-08-22T16:26:12.042Z,44.21
2017-08-22T16:28:40.369Z,44.42
2017-08-22T16:31:08.727Z,44.06
2017-08-22T16:33:37.091Z,45.43
2017-08-22T16:36:05.420Z,47.41
2017-08-22T16:38:33.786Z,46.08
2017-08-22T16:41:02.134Z,45.83
2017-08-22T16:43:30.577Z,46.70
2017-08-22T16:45:59.067Z,47.67
2017-08-22T16:48:27.456Z,49.32
2017-08-22T16:50:55.775Z,49.22
2017-08-22T16:53:24.148Z,49.62
2017-08-22T16:55:52.476Z,50.74
2017-08-22T16:58:20.833Z,50.64
2017-08-22T17:00:49.223Z,50.91
2017-08-22T17:03:17.552Z,51.56
2017-08-22T17:05:45.894Z,52.62
2017-08-22T17:08:14.218Z,53.65
2017-08-22T17:10:42.568Z,54.20
2017-08-22T17:13:10.908Z,54.71
2017-08-22T17:15:39.320Z,55.26
2017-08-22T17:18:07.686Z,55.86
2017-08-22T17:20:36.120Z,55.44
2017-08-22T17:23:04.447Z,56.85
2017-08-22T17:25:35.015Z,57.39
2017-08-22T17:28:03.387Z,57.32
2017-08-22T17:30:31.751Z,57.83
2017-08-22T17:33:00.106Z,58.09
2017-08-22T17:35:28.446Z,58.15
2017-08-22T17:37:56.788Z,59.00
2017-08-22T17:40:25.137Z,59.37
2017-08-22T17:42:53.503Z,59.15
2017-08-22T17:45:21.839Z,60.26
2017-08-22T17:47:50.193Z,60.64
2017-08-22T17:50:18.518Z,61.00
2017-08-22T17:52:46.865Z,61.83
2017-08-22T17:55:15.235Z,61.97
2017-08-22T17:57:44.341Z,62.13
2017-08-22T18:00:12.684Z,63.11
2017-08-22T18:02:41.056Z,62.78
2017-08-22T18:05:09.425Z,63.46
2017-08-22T18:07:37.771Z,63.78
2017-08-22T18:10:06.122Z,63.97
2017-08-22T18:12:34.471Z,64.36
2017-08-22T18:15:03.440Z,64.78
2017-08-22T18:17:31.773Z,65.17
2017-08-22T18:20:00.119Z,66.11
2017-08-22T18:22:28.483Z,65.96
2017-08-22T18:24:56.818Z,65.68
2017-08-22T18:27:25.187Z,65.64
2017-08-22T18:29:53.527Z,65.44
2017-08-22T18:32:21.870Z,65.37
2017-08-22T18:34:50.197Z,65.69
2017-08-22T18:37:18.561Z,65.82
2017-08-22T18:39:46.906Z,66.32
2017-08-22T18:42:15.234Z,66.63
2017-08-22T18:44:43.609Z,67.30
2017-08-22T18:47:11.987Z,67.10
2017-08-22T18:49:40.356Z,68.07
2017-08-22T18:52:08.696Z,67.35
2017-08-22T18:54:37.412Z,68.26
2017-08-22T18:57:05.749Z,68.19
2017-08-22T18:59:34.454Z,68.20
2017-08-22T19:02:02.798Z,69.62
2017-08-22T19:04:31.132Z,69.32
2017-08-22T19:06:59.519Z,68.59
2017-08-22T19:09:27.864Z,70.14
2017-08-22T19:11:56.219Z,70.37
2017-08-22T19:14:24.562Z,70.64
2017-08-22T19:16:53.032Z,70.62
2017-08-22T19:19:21.407Z,70.10
2017-08-22T19:21:50.193Z,70.59
2017-08-22T19:24:18.524Z,70.87
2017-08-22T19:26:46.849Z,71.65
2017-08-22T19:29:15.184Z,72.09
2017-08-22T19:31:43.516Z,72.20
2017-08-22T19:34:11.879Z,72.37
2017-08-22T19:36:40.250Z,71.98
2017-08-22T19:39:08.614Z,72.08
2017-08-22T19:41:36.964Z,72.38
2017-08-22T19:44:05.319Z,72.35
2017-08-22T19:46:33.747Z,72.42
2017-08-22T19:49:02.357Z,72.97
2017-08-22T19:51:30.708Z,72.86
2017-08-22T19:53:59.046Z,72.99
2017-08-22T19:56:27.415Z,73.45
2017-08-22T19:58:55.766Z,73.58
2017-08-22T20:01:24.129Z,72.90
2017-08-22T20:03:52.449Z,73.23
2017-08-22T20:06:20.797Z,73.85
2017-08-22T20:08:50.057Z,74.34
2017-08-22T20:11:18.714Z,74.16
2017-08-22T20:13:47.049Z,74.87
2017-08-22T20:16:15.389Z,74.70
2017-08-22T20:18:43.750Z,73.98
2017-08-22T20:21:12.093Z,74.65
2017-08-22T20:23:40.447Z,74.86
2017-08-22T20:26:08.776Z,74.73
2017-08-22T20:28:37.304Z,74.98
2017-08-22T20:31:05.745Z,75.50
2017-08-22T20:33:34.112Z,75.59
2017-08-22T20:36:02.458Z,74.90
2017-08-22T20:38:30.785Z,75.35
2017-08-22T20:40:59.157Z,75.52
2017-08-22T20:43:27.508Z,75.82
2017-08-22T20:45:55.969Z,76.63
2017-08-22T20:48:24.303Z,77.03
2017-08-22T20:50:52.718Z,75.93
2017-08-22T20:53:21.065Z,75.51
2017-08-22T20:55:49.716Z,76.65
2017-08-22T20:58:18.444Z,77.21
2017-08-22T21:00:46.799Z,77.87
2017-08-22T21:03:15.178Z,78.34
2017-08-22T21:05:43.621Z,78.21
2017-08-22T21:08:11.973Z,77.59
2017-08-22T21:10:40.301Z,77.99
2017-08-22T21:13:09.153Z,78.15
2017-08-22T21:15:37.518Z,78.36
2017-08-22T21:18:05.838Z,77.81
2017-08-22T21:20:34.181Z,78.17
2017-08-22T21:23:02.511Z,78.40
2017-08-22T21:25:30.862Z,78.98
2017-08-22T21:27:59.784Z,78.28
2017-08-22T21:30:28.140Z,78.38
2017-08-22T21:32:56.506Z,79.12
2017-08-22T21:35:24.828Z,78.58
2017-08-22T21:37:53.472Z,78.65
2017-08-22T21:40:21.780Z,78.60
2017-08-22T21:42:50.109Z,79.17
2017-08-22T21:45:18.450Z,79.67
2017-08-22T21:47:47.270Z,79.29
2017-08-22T21:50:15.585Z,79.29
2017-08-22T21:52:44.283Z,80.02
2017-08-22T21:55:12.607Z,79.69
2017-08-22T21:57:40.938Z,78.92
2017-08-22T22:00:09.286Z,78.61
2017-08-22T22:02:37.621Z,79.76
2017-08-22T22:05:05.970Z,79.91
2017-08-22T22:07:34.316Z,78.93
2017-08-22T22:10:02.661Z,80.37
2017-08-22T22:12:31.022Z,80.65
2017-08-22T22:14:59.451Z,80.63
2017-08-22T22:17:27.813Z,81.09
2017-08-22T22:19:56.195Z,81.23
2017-08-22T22:22:24.548Z,81.19
2017-08-22T22:24:52.890Z,81.50
2017-08-22T22:27:21.240Z,81.16
2017-08-22T22:29:49.579Z,81.03
2017-08-22T22:32:17.915Z,81.44
2017-08-22T22:34:46.231Z,80.91
2017-08-22T22:37:14.569Z,81.52
2017-08-22T22:39:42.893Z,81.51
2017-08-22T22:42:11.494Z,80.98
2017-08-22T22:44:39.841Z,81.71
2017-08-22T22:47:08.186Z,81.88
2017-08-22T22:49:36.523Z,81.21
2017-08-22T22:52:04.847Z,81.87
2017-08-22T22:54:33.951Z,81.59
2017-08-22T22:57:02.262Z,81.63
2017-08-22T22:59:30.649Z,81.45
2017-08-22T23:01:58.985Z,81.80
2017-08-22T23:04:27.329Z,81.39
2017-08-22T23:06:55.656Z,81.81
2017-08-22T23:09:24.147Z,82.39
2017-08-22T23:11:52.513Z,82.50
2017-08-22T23:14:20.861Z,82.44
2017-08-22T23:16:49.679Z,82.01
2017-08-22T23:19:18.009Z,82.11
2017-08-22T23:21:46.340Z,81.85
2017-08-22T23:24:14.688Z,81.54
2017-08-22T23:26:43.033Z,82.36
2017-08-22T23:29:11.474Z,82.52
2017-08-22T23:31:39.826Z,82.24
2017-08-22T23:34:08.141Z,82.95
2017-08-22T23:36:36.472Z,82.44
2017-08-22T23:39:04.792Z,81.92
2017-08-22T23:41:33.112Z,82.20
2017-08-22T23:44:01.455Z,82.09
2017-08-22T23:46:29.782Z,82.53
2017-08-22T23:48:58.139Z,82.77
2017-08-22T23:51:26.481Z,82.72
2017-08-22T23:53:55.279Z,83.51
2017-08-22T23:56:23.624Z,83.43
2017-08-22T23:58:51.934Z,83.53
